Time;durP1;ratioP1;P1;durP2;ratioP2;P2;SDS_P1;SDS_P2;PMS_P1;PMS_P2;Temp;Humidity;BMP_temperature;BMP_pressure;BME280_temperature;BME280_humidity;BME280_pressure;Samples;Min_cycle;Max_cycle;Signal;HPM_P1;HPM_P2
2023/10/04 00:02:06;;;;;;;;;3.25;1.50;;;;;15.98;56.92;102354.03;5105613;27;45665;-74
2023/10/04 00:04:31;;;;;;;;;3.00;1.50;;;;;15.96;57.03;102347.06;5102299;27;47421;-74
2023/10/04 00:07:03;;;;;;;;;2.25;0.50;;;;;15.96;57.26;102341.78;5110618;27;45555;-75
2023/10/04 00:09:29;;;;;;;;;2.25;1.75;;;;;15.92;57.23;102341.00;5119922;27;45334;-75
2023/10/04 00:11:55;;;;;;;;;3.50;1.75;;;;;15.94;57.41;102347.09;5120404;27;45299;-74
2023/10/04 00:14:22;;;;;;;;;3.50;0.50;;;;;15.91;57.06;102340.09;5112345;27;48119;-75
2023/10/04 00:16:47;;;;;;;;;1.50;0.50;;;;;15.94;57.33;102342.66;5124398;27;45638;-75
2023/10/04 00:19:12;;;;;;;;;4.50;1.00;;;;;15.93;57.30;102338.28;5120135;27;67764;-75
2023/10/04 00:21:38;;;;;;;;;2.00;0.00;;;;;15.92;57.25;102344.47;5120860;27;45340;-74
2023/10/04 00:24:04;;;;;;;;;4.50;3.00;;;;;15.93;57.30;102342.69;5104918;27;47341;-74
2023/10/04 00:26:30;;;;;;;;;3.75;1.00;;;;;15.89;57.20;102338.41;5122975;27;45218;-74
2023/10/04 00:28:55;;;;;;;;;4.00;0.25;;;;;15.87;57.47;102337.59;5115823;27;45335;-74
2023/10/04 00:31:21;;;;;;;;;5.50;1.50;;;;;15.84;57.69;102332.38;5116680;27;45439;-74
2023/10/04 00:33:49;;;;;;;;;4.25;2.25;;;;;15.84;57.67;102333.22;5108442;27;46060;-73
2023/10/04 00:36:16;;;;;;;;;3.25;0.50;;;;;15.82;57.75;102345.59;5095300;27;45552;-74
2023/10/04 00:38:42;;;;;;;;;3.25;1.50;;;;;15.78;57.74;102338.66;5118019;27;45480;-73
2023/10/04 00:41:09;;;;;;;;;2.75;0.50;;;;;15.80;57.76;102331.56;5122372;27;45164;-73
2023/10/04 00:43:47;;;;;;;;;1.25;0.50;;;;;15.77;57.72;102336.91;5121080;27;46324;-73
2023/10/04 00:46:12;;;;;;;;;4.50;1.75;;;;;15.75;57.71;102336.94;5117028;27;45556;-73
2023/10/04 00:48:39;;;;;;;;;1.25;1.25;;;;;15.72;57.80;102342.28;5114041;27;64673;-73
2023/10/04 00:51:06;;;;;;;;;1.00;0.25;;;;;15.66;57.99;102331.00;5120055;27;45534;-73
2023/10/04 00:53:33;;;;;;;;;1.25;0.50;;;;;15.61;58.10;102330.22;5121298;27;47604;-73
2023/10/04 00:55:59;;;;;;;;;2.00;0.00;;;;;15.55;57.94;102333.88;5120247;27;45209;-72
2023/10/04 00:58:25;;;;;;;;;2.50;1.25;;;;;15.49;58.19;102336.63;5122270;27;45306;-72
2023/10/04 01:00:50;;;;;;;;;1.75;1.00;;;;;15.44;58.40;102343.78;5120377;27;45483;-73
2023/10/04 01:03:24;;;;;;;;;2.00;0.50;;;;;15.41;58.19;102333.31;5121812;27;45386;-73
2023/10/04 01:05:51;;;;;;;;;3.00;0.25;;;;;15.32;58.57;102331.72;5118074;27;45216;-73
2023/10/04 01:08:20;;;;;;;;;2.75;0.50;;;;;15.32;59.10;102337.88;5113035;27;45397;-74
2023/10/04 01:10:47;;;;;;;;;0.50;0.50;;;;;15.32;58.79;102344.94;5121617;27;45605;-73
2023/10/04 01:13:14;;;;;;;;;1.25;0.50;;;;;15.30;58.78;102337.03;5112732;27;45512;-73
2023/10/04 01:15:39;;;;;;;;;3.50;1.50;;;;;15.25;59.06;102338.91;5115230;27;45227;-74
2023/10/04 01:18:10;;;;;;;;;3.25;1.25;;;;;15.23;58.96;102351.25;5121922;27;60324;-73
2023/10/04 01:20:38;;;;;;;;;2.00;0.25;;;;;15.19;59.08;102353.09;5121072;27;45310;-73
2023/10/04 01:23:06;;;;;;;;;2.50;1.00;;;;;15.19;59.69;102353.09;5120932;27;45389;-73
2023/10/04 01:25:32;;;;;;;;;2.00;1.25;;;;;15.22;59.66;102353.91;5120574;27;45777;-74
2023/10/04 01:27:59;;;;;;;;;3.00;1.00;;;;;15.23;59.64;102358.28;5120963;27;45384;-73
2023/10/04 01:30:25;;;;;;;;;3.00;1.75;;;;;15.22;59.37;102356.56;5120687;27;45832;-75
2023/10/04 01:32:51;;;;;;;;;5.50;2.00;;;;;15.18;59.81;102351.34;5121345;27;48733;-75
2023/10/04 01:35:23;;;;;;;;;2.75;0.25;;;;;15.16;59.97;102341.75;5137204;27;45885;-74
2023/10/04 01:37:50;;;;;;;;;4.67;1.67;;;;;15.14;59.91;102336.50;5105310;27;45358;-74
2023/10/04 01:40:18;;;;;;;;;1.75;0.50;;;;;15.21;59.97;102346.91;5116659;27;45361;-75
2023/10/04 01:42:45;;;;;;;;;2.75;1.00;;;;;15.21;59.86;102338.97;5095998;27;46969;-74
2023/10/04 01:45:15;;;;;;;;;3.25;2.00;;;;;15.23;60.21;102339.81;5106023;27;46327;-75
2023/10/04 01:47:41;;;;;;;;;2.75;2.00;;;;;15.27;59.98;102330.97;5103288;27;45350;-74
2023/10/04 01:50:09;;;;;;;;;0.50;0.50;;;;;15.28;60.03;102335.31;5103737;27;45376;-74
2023/10/04 01:52:35;;;;;;;;;4.25;1.50;;;;;15.30;59.95;102325.63;5109156;27;46430;-75
2023/10/04 01:55:01;;;;;;;;;2.50;0.25;;;;;15.29;59.76;102318.59;5112995;27;45209;-75
2023/10/04 01:57:27;;;;;;;;;0.25;0.25;;;;;15.27;59.95;102312.50;5101891;27;45499;-75
2023/10/04 01:59:54;;;;;;;;;2.50;1.25;;;;;15.27;59.98;102310.72;5111420;27;45805;-75
2023/10/04 02:02:21;;;;;;;;;0.00;0.00;;;;;15.27;59.68;102305.44;5117193;27;45470;-75
2023/10/04 02:04:52;;;;;;;;;2.25;0.50;;;;;15.26;60.13;102303.69;5117536;27;45584;-72
2023/10/04 02:07:17;;;;;;;;;1.75;0.75;;;;;15.25;59.97;102307.25;5118107;27;45270;-72
2023/10/04 02:09:43;;;;;;;;;2.25;2.00;;;;;15.19;60.36;102300.34;5100813;27;72492;-73
2023/10/04 02:12:08;;;;;;;;;0.50;0.00;;;;;15.24;59.65;102296.72;5119794;27;45607;-72
2023/10/04 02:14:33;;;;;;;;;4.00;0.75;;;;;15.25;59.91;102301.13;5112728;27;45351;-72
2023/10/04 02:17:00;;;;;;;;;3.50;1.50;;;;;15.24;60.10;102307.28;5114825;27;61923;-73
2023/10/04 02:19:25;;;;;;;;;1.00;1.00;;;;;15.18;59.98;102300.38;5112606;27;45643;-73
2023/10/04 02:21:51;;;;;;;;;2.25;1.25;;;;;15.20;60.54;102301.22;5114385;27;45435;-72
2023/10/04 02:24:16;;;;;;;;;3.00;1.50;;;;;15.17;60.39;102311.81;5120377;27;70494;-72
2023/10/04 02:26:41;;;;;;;;;3.75;1.50;;;;;15.19;60.49;102310.00;5119537;27;45257;-72
2023/10/04 02:29:09;;;;;;;;;3.50;2.50;;;;;15.23;60.51;102314.34;5135262;27;73723;-74
2023/10/04 02:31:36;;;;;;;;;1.00;1.00;;;;;15.22;60.80;102302.03;5117621;27;46330;-73
2023/10/04 02:34:04;;;;;;;;;3.50;1.50;;;;;15.24;60.34;102292.31;5116249;27;45313;-74
2023/10/04 02:36:30;;;;;;;;;2.75;0.75;;;;;15.24;60.45;102288.81;5105752;27;45557;-72
2023/10/04 02:38:55;;;;;;;;;0.75;0.75;;;;;15.26;60.12;102290.50;5112428;27;45416;-73
2023/10/04 02:41:20;;;;;;;;;2.00;0.50;;;;;15.23;60.70;102287.97;5112790;27;46470;-70
2023/10/04 02:43:46;;;;;;;;;1.50;0.00;;;;;15.23;60.63;102297.63;5119843;27;67430;-73
2023/10/04 02:46:12;;;;;;;;;2.50;1.00;;;;;15.21;60.49;102294.16;5120256;27;45447;-72
2023/10/04 02:48:37;;;;;;;;;4.25;0.50;;;;;15.22;60.53;102298.53;5109326;27;63161;-72
2023/10/04 02:51:04;;;;;;;;;1.00;1.00;;;;;15.21;60.48;102302.06;5107024;27;66159;-72
2023/10/04 02:53:29;;;;;;;;;4.25;0.25;;;;;15.20;60.18;102306.47;5110858;27;45225;-73
2023/10/04 02:55:57;;;;;;;;;6.00;1.00;;;;;15.18;60.53;102313.56;5086073;27;45317;-73
2023/10/04 02:58:22;;;;;;;;;0.50;0.50;;;;;15.17;60.51;102315.34;5121848;27;45543;-73
2023/10/04 03:00:50;;;;;;;;;2.75;1.00;;;;;15.13;60.66;102311.00;5119699;27;46274;-73
2023/10/04 03:03:22;;;;;;;;;1.50;0.25;;;;;15.13;60.12;102325.97;5119747;27;45342;-73
2023/10/04 03:05:47;;;;;;;;;2.50;1.75;;;;;15.07;60.90;102326.06;5115305;27;45292;-73
2023/10/04 03:08:12;;;;;;;;;2.50;1.25;;;;;15.04;60.82;102324.38;5118614;27;45430;-73
2023/10/04 03:10:38;;;;;;;;;2.25;1.00;;;;;14.99;61.13;102327.09;5116178;27;71672;-72
2023/10/04 03:13:12;;;;;;;;;2.00;1.00;;;;;15.00;60.89;102322.72;5120511;27;45390;-73
2023/10/04 03:15:38;;;;;;;;;4.00;1.50;;;;;14.99;61.27;102332.38;5120038;27;45453;-72
2023/10/04 03:18:13;;;;;;;;;2.25;2.00;;;;;14.98;60.89;102335.06;5119702;27;45448;-72
2023/10/04 03:20:52;;;;;;;;;1.00;0.50;;;;;14.97;60.86;102330.69;5111760;27;46256;-72
2023/10/04 03:23:18;;;;;;;;;1.25;0.25;;;;;14.95;60.94;102327.22;5111701;27;45749;-72
2023/10/04 03:25:44;;;;;;;;;2.50;1.00;;;;;14.91;61.10;102330.78;5121152;27;45292;-73
2023/10/04 03:28:10;;;;;;;;;1.00;1.00;;;;;14.88;61.00;102325.59;5118927;27;45386;-73
2023/10/04 03:30:36;;;;;;;;;2.25;0.25;;;;;14.83;61.19;102328.31;5119738;27;46452;-72
2023/10/04 03:33:01;;;;;;;;;2.50;0.00;;;;;14.75;61.70;102315.28;5118242;27;65917;-72
2023/10/04 03:35:26;;;;;;;;;1.25;1.00;;;;;14.72;61.65;102317.13;5098345;27;45337;-72
2023/10/04 03:37:58;;;;;;;;;3.00;1.00;;;;;14.70;61.89;102311.88;5112040;27;69286;-72
2023/10/04 03:40:24;;;;;;;;;0.25;0.25;;;;;14.70;61.82;102311.00;5085676;27;47397;-72
2023/10/04 03:42:49;;;;;;;;;2.00;2.00;;;;;14.68;62.16;102307.50;5119765;27;45258;-73
2023/10/04 03:45:22;;;;;;;;;1.50;0.25;;;;;14.72;62.28;102311.84;5118170;27;45842;-73
2023/10/04 03:47:50;;;;;;;;;1.00;1.00;;;;;14.73;61.91;102311.81;5100115;27;45537;-74
2023/10/04 03:50:19;;;;;;;;;3.75;0.25;;;;;14.76;61.92;102318.78;5119840;27;46282;-72
2023/10/04 03:52:46;;;;;;;;;1.25;1.25;;;;;14.78;62.71;102309.97;5119065;27;45713;-72
2023/10/04 03:55:13;;;;;;;;;4.50;1.25;;;;;14.78;62.42;102304.69;5102646;27;45430;-72
2023/10/04 03:57:42;;;;;;;;;1.00;1.00;;;;;14.83;62.11;102314.28;5101907;27;45567;-73
2023/10/04 04:00:11;;;;;;;;;4.75;1.00;;;;;14.81;62.16;102307.25;5119128;27;47056;-73
2023/10/04 04:02:39;;;;;;;;;2.00;1.00;;;;;14.83;62.15;102303.72;5101540;27;45912;-73
2023/10/04 04:05:08;;;;;;;;;0.75;0.75;;;;;14.83;62.02;102303.72;5102871;27;45303;-73
2023/10/04 04:07:34;;;;;;;;;3.75;1.75;;;;;14.84;61.87;102306.34;5110448;27;45739;-73
2023/10/04 04:10:02;;;;;;;;;2.75;2.50;;;;;14.81;61.96;102309.03;5089951;27;72456;-73
2023/10/04 04:12:27;;;;;;;;;1.00;1.00;;;;;14.78;61.83;102301.16;5116034;27;45372;-74
2023/10/04 04:14:53;;;;;;;;;2.00;1.00;;;;;14.77;62.16;102310.00;5106044;27;65733;-73
2023/10/04 04:17:22;;;;;;;;;0.75;0.00;;;;;14.76;61.86;102322.28;5118470;27;45169;-73
2023/10/04 04:19:49;;;;;;;;;3.25;1.00;;;;;14.72;62.14;102311.84;5118582;27;46082;-73
2023/10/04 04:22:15;;;;;;;;;4.50;1.25;;;;;14.69;62.76;102325.06;5118711;27;45395;-72
2023/10/04 04:24:41;;;;;;;;;1.50;0.00;;;;;14.68;62.25;102313.66;5120575;27;45415;-73
2023/10/04 04:27:07;;;;;;;;;2.00;0.50;;;;;14.69;62.78;102319.78;5117272;27;45317;-72
2023/10/04 04:29:32;;;;;;;;;4.00;0.50;;;;;14.72;62.65;102327.66;5118625;27;46026;-73
2023/10/04 04:31:58;;;;;;;;;1.50;0.25;;;;;14.71;62.49;102326.75;5116701;27;68302;-72
2023/10/04 04:34:25;;;;;;;;;3.00;1.25;;;;;14.70;62.52;102324.19;5119550;27;45308;-73
2023/10/04 04:36:51;;;;;;;;;2.75;0.75;;;;;14.71;62.68;102328.53;5117566;27;45192;-72
2023/10/04 04:39:18;;;;;;;;;4.50;1.00;;;;;14.69;62.72;102323.28;5096024;27;47252;-73
2023/10/04 04:41:46;;;;;;;;;1.25;0.75;;;;;14.70;62.93;102324.19;5122061;27;45817;-74
2023/10/04 04:44:11;;;;;;;;;1.00;1.00;;;;;14.71;63.03;102328.53;5122288;27;45463;-74
2023/10/04 04:46:38;;;;;;;;;2.75;1.00;;;;;14.71;63.08;102321.50;5120486;27;63905;-74
2023/10/04 04:49:04;;;;;;;;;4.00;1.00;;;;;14.75;62.97;102322.31;5123615;27;45324;-73
2023/10/04 04:51:31;;;;;;;;;2.00;1.25;;;;;14.77;63.15;102321.41;5119785;27;50381;-73
2023/10/04 04:53:56;;;;;;;;;3.25;1.25;;;;;14.80;62.80;102321.34;5122801;27;45699;-72
2023/10/04 04:56:23;;;;;;;;;4.50;1.50;;;;;14.83;62.72;102320.41;5122313;27;57965;-72
2023/10/04 04:58:49;;;;;;;;;6.00;2.00;;;;;14.85;62.77;102313.31;5120456;27;46268;-72
2023/10/04 05:01:15;;;;;;;;;2.50;1.00;;;;;14.85;62.90;102313.31;5122584;27;45286;-73
2023/10/04 05:03:42;;;;;;;;;3.50;1.50;;;;;14.86;62.85;102309.81;5123145;27;45416;-73
2023/10/04 05:06:14;;;;;;;;;4.00;2.00;;;;;14.86;63.11;102307.16;5091063;27;45809;-74
2023/10/04 05:08:40;;;;;;;;;1.50;1.50;;;;;14.81;63.34;102306.38;5121600;27;46264;-75
2023/10/04 05:11:06;;;;;;;;;0.75;0.75;;;;;14.87;63.12;102313.31;5121009;27;45702;-74
2023/10/04 05:13:32;;;;;;;;;2.75;1.50;;;;;14.87;63.28;102315.94;5110022;27;45198;-73
2023/10/04 05:15:57;;;;;;;;;5.00;1.75;;;;;14.88;63.15;102323.81;5121554;27;45289;-73
2023/10/04 05:18:22;;;;;;;;;3.00;1.00;;;;;14.88;62.59;102322.97;5121876;27;45952;-73
2023/10/04 05:20:55;;;;;;;;;3.50;2.00;;;;;14.85;63.08;102315.09;5119626;27;69084;-73
2023/10/04 05:23:25;;;;;;;;;2.00;1.50;;;;;14.85;63.18;102315.97;5116145;27;45784;-73
2023/10/04 05:25:52;;;;;;;;;2.50;0.50;;;;;14.83;63.21;102309.00;5121556;27;45204;-73
2023/10/04 05:28:18;;;;;;;;;4.00;1.50;;;;;14.85;63.07;102318.59;5120830;27;46228;-74
2023/10/04 05:30:45;;;;;;;;;4.50;0.50;;;;;14.83;63.44;102320.41;5122130;27;45780;-73
2023/10/04 05:33:16;;;;;;;;;4.00;2.00;;;;;14.86;63.67;102325.63;5111328;27;45480;-71
2023/10/04 05:35:43;;;;;;;;;2.00;2.00;;;;;14.85;63.39;102325.66;5126724;27;45559;-70
2023/10/04 05:38:11;;;;;;;;;8.25;1.50;;;;;14.86;63.35;102319.50;5119882;27;46673;-69
2023/10/04 05:40:38;;;;;;;;;0.50;0.50;;;;;14.86;63.06;102325.63;5091602;27;45783;-70
2023/10/04 05:43:05;;;;;;;;;0.50;0.50;;;;;14.85;63.48;102329.16;5108123;27;45406;-75
2023/10/04 05:45:31;;;;;;;;;1.50;1.50;;;;;14.84;63.73;102322.16;5123065;27;45208;-76
2023/10/04 05:47:59;;;;;;;;;2.75;2.50;;;;;14.85;63.60;102320.38;5121287;27;45715;-70
2023/10/04 05:50:25;;;;;;;;;7.75;3.50;;;;;14.84;63.53;102313.34;5113489;27;45842;-74
2023/10/04 05:52:52;;;;;;;;;2.00;1.75;;;;;14.81;63.92;102314.28;5106642;27;45334;-74
2023/10/04 05:55:19;;;;;;;;;3.50;1.75;;;;;14.81;63.89;102309.03;5094768;27;45889;-75
2023/10/04 05:57:45;;;;;;;;;2.75;2.50;;;;;14.81;64.01;102306.38;5120232;27;46537;-73
2023/10/04 06:00:33;;;;;;;;;1.75;1.50;;;;;14.81;63.47;102315.16;5102409;27;45858;-72
2023/10/04 06:02:59;;;;;;;;;5.00;3.00;;;;;14.82;64.13;102321.31;5110143;27;45783;-72
2023/10/04 06:05:27;;;;;;;;;2.00;2.00;;;;;14.81;63.80;102322.19;5111796;27;45610;-72
2023/10/04 06:07:56;;;;;;;;;3.50;1.00;;;;;14.81;63.81;102328.34;5119464;27;46247;-69
2023/10/04 06:10:24;;;;;;;;;5.00;2.00;;;;;14.80;63.77;102321.34;5121147;27;45755;-71
2023/10/04 06:12:52;;;;;;;;;4.75;2.25;;;;;14.79;64.01;102319.59;5118937;27;45527;-71
2023/10/04 06:15:18;;;;;;;;;2.00;1.00;;;;;14.84;64.13;102322.16;5108197;27;45466;-72
2023/10/04 06:17:47;;;;;;;;;5.75;2.00;;;;;14.86;63.94;102330.91;5111782;27;46083;-70
2023/10/04 06:20:23;;;;;;;;;4.00;2.00;;;;;14.88;63.92;102333.50;5121511;27;45405;-69
2023/10/04 06:22:53;;;;;;;;;7.50;4.00;;;;;14.89;64.26;102332.59;5118917;27;45468;-71
2023/10/04 06:25:20;;;;;;;;;4.50;3.00;;;;;14.89;63.82;102327.31;5117802;27;45232;-68
2023/10/04 06:27:45;;;;;;;;;7.50;4.25;;;;;14.93;63.97;102334.28;5111782;27;47288;-72
2023/10/04 06:30:16;;;;;;;;;3.00;3.00;;;;;14.95;63.78;102335.97;5116125;27;45369;-72
2023/10/04 06:32:41;;;;;;;;;7.75;3.25;;;;;14.95;64.33;102335.97;5111235;27;45519;-74
2023/10/04 06:35:09;;;;;;;;;3.75;2.00;;;;;15.02;63.69;102338.50;5116982;27;45464;-71
2023/10/04 06:37:36;;;;;;;;;2.25;2.00;;;;;15.05;63.93;102347.22;5105523;27;45321;-76
2023/10/04 06:40:03;;;;;;;;;6.00;2.00;;;;;15.06;63.90;102346.31;5102469;27;45411;-74
2023/10/04 06:42:28;;;;;;;;;4.75;1.75;;;;;15.09;64.02;102348.91;5102944;27;45414;-76
2023/10/04 06:44:54;;;;;;;;;4.00;2.00;;;;;15.11;63.98;102339.19;5115081;27;45423;-76
2023/10/04 06:47:20;;;;;;;;;4.50;2.00;;;;;15.11;64.00;102344.44;5118893;27;45400;-76
2023/10/04 06:49:46;;;;;;;;;4.75;3.00;;;;;15.16;64.13;102345.22;5114116;27;45807;-76
2023/10/04 06:52:11;;;;;;;;;2.00;1.75;;;;;15.22;63.79;102353.91;5116649;27;50519;-76
2023/10/04 06:54:36;;;;;;;;;3.00;3.00;;;;;15.24;63.68;102355.63;5118716;27;45447;-76
2023/10/04 06:57:03;;;;;;;;;4.50;1.25;;;;;15.26;63.90;102361.72;5116153;27;46220;-79
2023/10/04 06:59:28;;;;;;;;;10.25;2.75;;;;;15.30;63.79;102355.50;5119295;27;45524;-76
2023/10/04 07:01:54;;;;;;;;;4.00;3.25;;;;;15.30;63.71;102349.38;5114055;27;45617;-77
2023/10/04 07:04:19;;;;;;;;;5.00;2.00;;;;;15.33;63.21;102355.44;5113573;27;45694;-76
2023/10/04 07:06:44;;;;;;;;;6.50;4.00;;;;;15.36;63.36;102371.19;5111790;27;47479;-77
2023/10/04 07:09:10;;;;;;;;;1.75;1.75;;;;;15.37;63.36;102374.72;5114982;27;59979;-77
2023/10/04 07:11:36;;;;;;;;;5.75;3.25;;;;;15.42;63.42;102371.97;5112217;27;45327;-77
2023/10/04 07:14:04;;;;;;;;;4.00;0.50;;;;;15.43;63.45;102369.28;5115186;27;45523;-77
2023/10/04 07:16:29;;;;;;;;;3.75;2.50;;;;;15.50;63.39;102373.53;5114083;27;45447;-78
2023/10/04 07:18:54;;;;;;;;;7.75;3.00;;;;;15.53;63.55;102365.56;5114486;27;70398;-77
2023/10/04 07:21:20;;;;;;;;;3.75;3.75;;;;;15.62;63.52;102376.84;5129609;27;48305;-82
2023/10/04 07:23:46;;;;;;;;;5.00;3.00;;;;;15.65;62.80;102368.81;5109698;27;45529;-76
2023/10/04 07:26:11;;;;;;;;;4.00;2.25;;;;;15.66;63.12;102365.31;5110893;27;45632;-78
2023/10/04 07:28:38;;;;;;;;;2.50;1.25;;;;;15.67;62.68;102369.66;5114128;27;45322;-75
2023/10/04 07:31:03;;;;;;;;;5.75;2.50;;;;;15.75;62.64;102375.69;5117973;27;45242;-71
2023/10/04 07:33:29;;;;;;;;;6.50;2.50;;;;;15.81;62.63;102375.56;5110547;27;52872;-71
2023/10/04 07:35:55;;;;;;;;;3.25;2.25;;;;;15.86;62.58;102383.34;5110867;27;66670;-72
2023/10/04 07:38:20;;;;;;;;;4.50;2.75;;;;;15.89;62.42;102388.56;5089494;27;45388;-72
2023/10/04 07:40:46;;;;;;;;;8.25;3.50;;;;;15.93;62.32;102398.16;5119443;27;45977;-72
2023/10/04 07:43:13;;;;;;;;;3.25;2.75;;;;;15.94;62.16;102392.84;5114789;27;51914;-73
2023/10/04 07:45:39;;;;;;;;;3.50;2.50;;;;;15.97;62.05;102399.84;5083325;27;47684;-81
2023/10/04 07:48:06;;;;;;;;;149.00;123.00;;;;;16.04;62.32;102400.53;5112657;27;45693;-82
2023/10/04 07:50:32;;;;;;;;;4.00;3.00;;;;;16.11;61.69;102399.50;5095198;27;45582;-81
2023/10/04 07:53:00;;;;;;;;;7.00;2.50;;;;;16.18;62.04;102406.38;5112154;27;45608;-74
2023/10/04 07:55:26;;;;;;;;;5.00;3.25;;;;;16.24;61.55;102415.94;5114540;27;47095;-77
2023/10/04 07:58:02;;;;;;;;;5.50;2.50;;;;;16.31;61.47;102418.38;5112523;27;45218;-72
2023/10/04 08:00:28;;;;;;;;;7.00;3.50;;;;;16.39;61.40;102417.34;5095772;27;45512;-75
2023/10/04 08:02:53;;;;;;;;;5.00;4.00;;;;;16.46;61.21;102414.50;5114245;27;45298;-75
2023/10/04 08:05:25;;;;;;;;;7.75;2.75;;;;;16.52;61.00;102422.28;5118563;27;45375;-76
2023/10/04 08:07:52;;;;;;;;;3.25;3.00;;;;;16.58;60.51;102423.03;5113176;27;45757;-76
2023/10/04 08:10:18;;;;;;;;;2.50;2.50;;;;;16.65;60.49;102427.25;5101433;27;45438;-74
2023/10/04 08:12:45;;;;;;;;;7.50;3.00;;;;;16.66;60.36;102423.69;5111401;27;45333;-81
2023/10/04 08:15:15;;;;;;;;;5.25;3.00;;;;;16.73;60.41;102427.91;5116060;27;45576;-75
2023/10/04 08:17:43;;;;;;;;;4.50;2.00;;;;;16.80;60.44;102429.53;5115199;27;46150;-74
2023/10/04 08:20:12;;;;;;;;;6.00;2.50;;;;;16.89;60.10;102428.41;5121252;27;45414;-74
2023/10/04 08:22:38;;;;;;;;;10.50;2.00;;;;;16.95;60.09;102427.41;5111140;27;45555;-75
2023/10/04 08:25:04;;;;;;;;;6.75;2.75;;;;;17.03;59.92;102422.75;5117306;27;46477;-78
2023/10/04 08:27:31;;;;;;;;;4.25;3.00;;;;;17.11;59.57;102422.56;5115867;27;45490;-75
2023/10/04 08:29:56;;;;;;;;;5.75;2.00;;;;;17.20;59.35;102409.94;5116451;27;47029;-75
2023/10/04 08:32:22;;;;;;;;;60.25;44.75;;;;;17.30;58.28;102407.94;5116562;27;56798;-78
2023/10/04 08:34:49;;;;;;;;;10.75;6.75;;;;;17.39;58.69;102410.31;5118579;27;45475;-75
2023/10/04 08:37:14;;;;;;;;;7.25;3.50;;;;;17.49;58.94;102413.53;5116422;27;45869;-76
2023/10/04 08:39:40;;;;;;;;;4.00;2.00;;;;;17.56;58.58;102412.44;5120559;27;45335;-77
2023/10/04 08:42:06;;;;;;;;;6.25;3.00;;;;;17.62;58.27;102414.06;5119825;27;45453;-69
2023/10/04 08:44:31;;;;;;;;;4.75;2.75;;;;;17.65;58.34;102403.34;5124532;27;45484;-76
2023/10/04 08:47:00;;;;;;;;;3.00;3.00;;;;;17.74;58.21;102407.50;5123370;27;58417;-76
2023/10/04 08:49:29;;;;;;;;;5.75;1.50;;;;;17.74;57.92;102404.88;5115951;27;45540;-77
2023/10/04 08:52:00;;;;;;;;;7.25;3.00;;;;;17.78;57.78;102414.47;5103237;27;45413;-77
2023/10/04 08:54:26;;;;;;;;;7.25;2.00;;;;;17.84;57.61;102406.31;5108180;27;45609;-76
2023/10/04 08:57:05;;;;;;;;;5.00;3.50;;;;;17.87;57.50;102413.34;5113108;27;67863;-76
2023/10/04 08:59:32;;;;;;;;;10.50;4.75;;;;;17.90;57.35;102418.53;5110761;27;45568;-76
2023/10/04 09:01:59;;;;;;;;;3.75;2.75;;;;;17.92;56.91;102422.88;5116843;27;45475;-76
2023/10/04 09:04:26;;;;;;;;;7.50;5.00;;;;;17.95;57.25;102428.06;5108381;27;45675;-75
2023/10/04 09:06:52;;;;;;;;;6.00;3.75;;;;;18.00;57.24;102425.28;5120224;27;45392;-71
2023/10/04 09:09:18;;;;;;;;;4.75;3.00;;;;;18.07;56.77;102429.47;5087720;27;45334;-77
2023/10/04 09:11:45;;;;;;;;;6.25;4.25;;;;;18.10;57.06;102432.03;5098111;27;45478;-76
2023/10/04 09:14:10;;;;;;;;;2.50;2.50;;;;;18.13;56.60;102426.66;5112665;27;45917;-78
2023/10/04 09:16:35;;;;;;;;;5.25;3.25;;;;;18.21;56.78;102418.44;5119908;27;45506;-72
2023/10/04 09:19:08;;;;;;;;;3.00;3.00;;;;;18.29;56.46;102413.78;5114346;27;62373;-78
2023/10/04 09:21:38;;;;;;;;;6.00;2.50;;;;;18.37;56.72;102416.16;5114926;27;45558;-77
2023/10/04 09:24:11;;;;;;;;;7.00;2.50;;;;;18.43;55.51;102421.25;5118461;27;45519;-77
2023/10/04 09:26:37;;;;;;;;;8.50;3.75;;;;;18.47;55.53;102427.31;5118521;27;45325;-76
2023/10/04 09:29:07;;;;;;;;;4.00;2.00;;;;;18.50;55.64;102425.47;5115073;27;45442;-74
2023/10/04 09:31:53;;;;;;;;;4.75;1.25;;;;;18.59;55.42;102433.09;5111998;27;45474;-73
2023/10/04 09:34:19;;;;;;;;;6.50;3.25;;;;;18.66;55.55;102430.22;5096644;27;46813;-77
2023/10/04 09:36:45;;;;;;;;;4.75;2.50;;;;;18.70;54.97;102430.09;5120145;27;45382;-74
2023/10/04 09:39:13;;;;;;;;;5.75;2.25;;;;;18.80;55.01;102427.97;5115392;27;45319;-76
2023/10/04 09:41:44;;;;;;;;;8.75;3.50;;;;;18.88;54.79;102417.13;5115266;27;45448;-76
2023/10/04 09:44:25;;;;;;;;;7.50;2.75;;;;;18.95;54.72;102416.00;5115952;27;45595;-76
2023/10/04 09:47:00;;;;;;;;;5.25;2.00;;;;;19.00;54.73;102406.09;5112464;27;46044;-74
2023/10/04 09:49:28;;;;;;;;;9.25;4.50;;;;;19.04;54.50;102399.75;5111333;27;45523;-77
2023/10/04 09:51:54;;;;;;;;;4.50;4.00;;;;;19.08;53.73;102411.13;5118809;27;45524;-75
2023/10/04 09:54:20;;;;;;;;;5.75;2.25;;;;;19.09;54.15;102408.41;5111757;27;46303;-75
2023/10/04 09:56:51;;;;;;;;;9.00;3.75;;;;;19.13;53.33;102401.22;5119089;27;45360;-72
2023/10/04 09:59:22;;;;;;;;;1.25;1.25;;;;;19.15;52.97;102405.53;5114467;27;45437;-76
2023/10/04 10:01:54;;;;;;;;;3.50;1.75;;;;;19.20;53.45;102402.72;5099634;27;46764;-73
2023/10/04 10:04:28;;;;;;;;;3.50;2.00;;;;;19.27;52.13;102406.88;5113146;27;45610;-77
2023/10/04 10:07:10;;;;;;;;;2.50;2.00;;;;;19.31;52.36;102402.31;5113174;27;45408;-81
2023/10/04 10:09:55;;;;;;;;;5.00;2.00;;;;;19.33;52.03;102405.78;5112251;27;45435;-82
2023/10/04 10:12:22;;;;;;;;;2.25;1.75;;;;;19.32;52.05;102391.63;5136490;27;45616;-82
2023/10/04 10:14:48;;;;;;;;;2.25;1.25;;;;;19.39;52.14;102392.28;5106408;27;48062;-80
2023/10/04 10:17:17;;;;;;;;;2.75;2.00;;;;;19.40;51.91;102394.00;5119204;27;69854;-75
2023/10/04 10:19:44;;;;;;;;;4.00;2.00;;;;;19.44;51.79;102402.72;5113300;27;45437;-79
2023/10/04 10:22:16;;;;;;;;;2.75;2.75;;;;;19.48;51.56;102391.06;5096289;27;45563;-75
2023/10/04 10:24:56;;;;;;;;;2.00;2.00;;;;;19.54;51.46;102388.16;5112529;27;47660;-73
2023/10/04 10:27:28;;;;;;;;;3.25;3.00;;;;;19.58;51.54;102384.47;5112358;27;45574;-74
2023/10/04 10:30:18;;;;;;;;;5.50;3.25;;;;;19.61;51.32;102381.69;5113944;27;45364;-76
2023/10/04 10:32:59;;;;;;;;;4.50;2.00;;;;;19.66;50.71;102384.19;5119021;27;45512;-72
2023/10/04 10:35:56;;;;;;;;;5.00;2.00;;;;;19.70;51.23;102397.25;5108628;27;45298;-71
2023/10/04 10:38:39;;;;;;;;;4.00;2.00;;;;;19.78;50.04;102394.38;5107177;27;45658;-72
2023/10/04 10:41:05;;;;;;;;;2.25;2.00;;;;;19.81;50.91;102396.88;5115467;27;45436;-72
2023/10/04 10:43:31;;;;;;;;;4.50;3.00;;;;;19.85;50.22;102393.19;5114985;27;45624;-72
2023/10/04 10:45:57;;;;;;;;;4.75;1.00;;;;;19.88;50.18;102395.75;5113808;27;45421;-73
2023/10/04 10:48:31;;;;;;;;;1.75;1.75;;;;;19.93;50.48;102382.25;5112759;27;45666;-78
2023/10/04 10:50:56;;;;;;;;;3.00;2.50;;;;;19.92;50.36;102370.75;5117858;27;45287;-81
2023/10/04 10:53:23;;;;;;;;;2.00;2.00;;;;;19.95;50.54;102371.56;5103515;27;66227;-80
2023/10/04 10:55:49;;;;;;;;;6.00;3.00;;;;;19.97;50.19;102367.03;5110022;27;46322;-84
2023/10/04 10:58:14;;;;;;;;;8.00;2.50;;;;;20.00;50.30;102382.88;5092278;27;45942;-81
2023/10/04 11:00:40;;;;;;;;;2.50;2.50;;;;;20.00;50.18;102378.41;5118802;27;45272;-82
2023/10/04 11:03:09;;;;;;;;;4.00;2.00;;;;;19.96;49.79;102368.84;5112560;27;46450;-77
2023/10/04 11:05:35;;;;;;;;;5.25;2.00;;;;;20.00;49.83;102380.22;5114386;27;45338;-79
2023/10/04 11:08:01;;;;;;;;;4.50;2.75;;;;;20.00;49.44;102375.75;5109386;27;45425;-75
2023/10/04 11:10:27;;;;;;;;;5.25;3.75;;;;;20.04;50.15;102371.19;5116295;27;45499;-76
2023/10/04 11:12:54;;;;;;;;;1.25;1.25;;;;;20.09;49.25;102362.09;5112127;27;45510;-78
2023/10/04 11:15:23;;;;;;;;;2.75;1.00;;;;;20.09;49.45;102356.78;5114610;27;46916;-77
2023/10/04 11:17:49;;;;;;;;;3.75;2.00;;;;;20.14;49.63;102355.75;5105235;27;45377;-77
2023/10/04 11:20:17;;;;;;;;;4.50;2.00;;;;;20.15;49.10;102349.47;5095392;27;45336;-77
2023/10/04 11:22:44;;;;;;;;;3.50;2.75;;;;;20.17;49.00;102347.63;5092184;27;46559;-71
2023/10/04 11:25:11;;;;;;;;;4.50;2.00;;;;;20.19;47.81;102357.28;5099445;27;47342;-78
2023/10/04 11:27:40;;;;;;;;;4.50;2.00;;;;;20.14;49.09;102355.75;5106341;27;45337;-77